PIA456 OPSD-OPKC
Flight info
| Callsign | PIA456 |
|---|---|
| Flight time | 2h 3m |
| Altitude | 36000 |
| Route | DELDA J122 KAGLO J186 RN Z301 NH |
| Aircraft | A320/M-SDE3FGHIRWY/LB1 |
Departure
| Time | 2026-04-26 03:25 |
|---|---|
| Airport | Skardu International Airport (OPSD) |
Arrival
| Time | 2026-04-26 05:28 |
|---|---|
| Airport | Jinnah International Airport (OPKC) |
| Time | Latitude | Longitude | Altitude | Speed | Heading |
|---|---|---|---|---|---|
| 2026-04-26 02:55 | 35.33084 | 75.54139 | 7405 ft | 0 kts | 147° |
| 2026-04-26 03:15 | 35.33089 | 75.54135 | 7407 ft | 4 kts | 145° |
| 2026-04-26 03:15 | 35.33108 | 75.54113 | 7406 ft | 4 kts | 115° |
| 2026-04-26 03:15 | 35.33111 | 75.54085 | 7407 ft | 3 kts | 61° |
| 2026-04-26 03:16 | 35.33110 | 75.54084 | 7407 ft | 0 kts | 59° |
| 2026-04-26 03:16 | 35.33110 | 75.54083 | 7407 ft | 0 kts | 59° |
| 2026-04-26 03:18 | 35.33111 | 75.54085 | 7407 ft | 1 kts | 59° |
| 2026-04-26 03:18 | 35.33119 | 75.54100 | 7407 ft | 3 kts | 58° |
| 2026-04-26 03:18 | 35.33134 | 75.54130 | 7405 ft | 5 kts | 56° |
| 2026-04-26 03:18 | 35.33158 | 75.54174 | 7401 ft | 7 kts | 57° |
| 2026-04-26 03:19 | 35.33189 | 75.54234 | 7404 ft | 10 kts | 58° |
| 2026-04-26 03:19 | 35.33232 | 75.54314 | 7404 ft | 13 kts | 56° |
| 2026-04-26 03:19 | 35.33295 | 75.54352 | 7404 ft | 11 kts | 327° |
| 2026-04-26 03:19 | 35.33370 | 75.54288 | 7404 ft | 15 kts | 326° |
| 2026-04-26 03:20 | 35.33466 | 75.54212 | 7404 ft | 18 kts | 327° |
| 2026-04-26 03:20 | 35.33577 | 75.54124 | 7403 ft | 19 kts | 327° |
| 2026-04-26 03:20 | 35.33697 | 75.54031 | 7402 ft | 21 kts | 324° |
| 2026-04-26 03:20 | 35.33827 | 75.53925 | 7401 ft | 24 kts | 328° |
| 2026-04-26 03:21 | 35.33959 | 75.53823 | 7402 ft | 21 kts | 328° |
| 2026-04-26 03:21 | 35.34077 | 75.53731 | 7402 ft | 20 kts | 327° |
| 2026-04-26 03:21 | 35.34195 | 75.53636 | 7404 ft | 21 kts | 328° |
| 2026-04-26 03:21 | 35.34302 | 75.53547 | 7404 ft | 20 kts | 321° |
| 2026-04-26 03:22 | 35.34426 | 75.53449 | 7399 ft | 22 kts | 329° |
| 2026-04-26 03:22 | 35.34562 | 75.53342 | 7398 ft | 25 kts | 328° |
| 2026-04-26 03:22 | 35.34713 | 75.53224 | 7398 ft | 26 kts | 326° |
| 2026-04-26 03:22 | 35.34870 | 75.53099 | 7399 ft | 27 kts | 327° |
| 2026-04-26 03:23 | 35.35010 | 75.52988 | 7403 ft | 24 kts | 327° |
| 2026-04-26 03:23 | 35.35101 | 75.52869 | 7403 ft | 17 kts | 304° |
| 2026-04-26 03:23 | 35.35173 | 75.52811 | 7403 ft | 13 kts | 34° |
| 2026-04-26 03:23 | 35.35137 | 75.52889 | 7403 ft | 0 kts | 147° |
| 2026-04-26 03:24 | 35.35136 | 75.52890 | 7403 ft | 1 kts | 147° |
| 2026-04-26 03:24 | 35.35042 | 75.52965 | 7405 ft | 47 kts | 147° |
| 2026-04-26 03:24 | 35.34563 | 75.53345 | 7404 ft | 114 kts | 147° |
| 2026-04-26 03:24 | 35.33739 | 75.54000 | 7402 ft | 167 kts | 147° |
| 2026-04-26 03:25 | 35.32670 | 75.54853 | 7645 ft | 190 kts | 147° |
| 2026-04-26 03:25 | 35.31553 | 75.55738 | 8344 ft | 191 kts | 147° |
| 2026-04-26 03:25 | 35.30405 | 75.56548 | 9052 ft | 194 kts | 156° |
| 2026-04-26 03:25 | 35.29129 | 75.57317 | 9390 ft | 216 kts | 141° |
| 2026-04-26 03:26 | 35.28206 | 75.58841 | 9581 ft | 236 kts | 108° |
| 2026-04-26 03:26 | 35.28095 | 75.60836 | 9965 ft | 245 kts | 77° |
| 2026-04-26 03:26 | 35.28872 | 75.62710 | 10439 ft | 255 kts | 46° |
| 2026-04-26 03:26 | 35.30366 | 75.63924 | 10895 ft | 266 kts | 18° |
| 2026-04-26 03:27 | 35.32226 | 75.64140 | 11394 ft | 276 kts | 349° |
| 2026-04-26 03:27 | 35.34012 | 75.63252 | 11979 ft | 281 kts | 322° |
| 2026-04-26 03:27 | 35.35278 | 75.61449 | 12732 ft | 281 kts | 296° |
| 2026-04-26 03:27 | 35.36031 | 75.59223 | 13404 ft | 287 kts | 290° |
| 2026-04-26 03:28 | 35.36800 | 75.56934 | 13975 ft | 295 kts | 298° |
| 2026-04-26 03:28 | 35.37863 | 75.54792 | 14509 ft | 302 kts | 303° |
| 2026-04-26 03:28 | 35.39035 | 75.52618 | 15019 ft | 309 kts | 302° |
| 2026-04-26 03:28 | 35.40168 | 75.50284 | 15229 ft | 329 kts | 300° |
| 2026-04-26 03:29 | 35.41316 | 75.47751 | 15367 ft | 350 kts | 298° |
| 2026-04-26 03:29 | 35.42493 | 75.45059 | 15689 ft | 363 kts | 298° |
| 2026-04-26 03:29 | 35.43682 | 75.42304 | 16247 ft | 368 kts | 298° |
| 2026-04-26 03:29 | 35.44887 | 75.39508 | 16858 ft | 373 kts | 298° |
| 2026-04-26 03:30 | 35.46109 | 75.36696 | 17484 ft | 376 kts | 299° |
| 2026-04-26 03:30 | 35.47355 | 75.33855 | 18108 ft | 379 kts | 299° |
| 2026-04-26 03:30 | 35.48618 | 75.30993 | 18733 ft | 383 kts | 299° |
| 2026-04-26 03:30 | 35.49868 | 75.28160 | 19286 ft | 384 kts | 299° |
| 2026-04-26 03:31 | 35.51138 | 75.25272 | 19898 ft | 385 kts | 299° |
| 2026-04-26 03:31 | 35.52411 | 75.22367 | 20528 ft | 386 kts | 299° |
| 2026-04-26 03:31 | 35.53686 | 75.19459 | 21165 ft | 386 kts | 299° |
| 2026-04-26 03:31 | 35.54960 | 75.16556 | 21789 ft | 387 kts | 299° |
| 2026-04-26 03:32 | 35.55805 | 75.14626 | 22183 ft | 387 kts | 299° |
| 2026-04-26 03:32 | 35.57512 | 75.10723 | 23020 ft | 388 kts | 299° |
| 2026-04-26 03:32 | 35.58790 | 75.07801 | 23600 ft | 389 kts | 299° |
| 2026-04-26 03:32 | 35.60071 | 75.04870 | 24121 ft | 389 kts | 300° |
| 2026-04-26 03:33 | 35.61329 | 75.01983 | 24558 ft | 389 kts | 299° |
| 2026-04-26 03:33 | 35.62605 | 74.99051 | 25039 ft | 389 kts | 300° |
| 2026-04-26 03:33 | 35.63883 | 74.96116 | 25487 ft | 389 kts | 299° |
| 2026-04-26 03:33 | 35.65161 | 74.93187 | 25894 ft | 390 kts | 300° |
| 2026-04-26 03:34 | 35.66009 | 74.91239 | 26149 ft | 390 kts | 300° |
| 2026-04-26 03:34 | 35.67722 | 74.87293 | 26626 ft | 392 kts | 299° |
| 2026-04-26 03:34 | 35.68572 | 74.85332 | 26912 ft | 393 kts | 298° |
| 2026-04-26 03:34 | 35.69786 | 74.81080 | 27459 ft | 399 kts | 283° |
| 2026-04-26 03:35 | 35.69978 | 74.77704 | 27794 ft | 406 kts | 270° |
| 2026-04-26 03:35 | 35.69499 | 74.74245 | 28197 ft | 415 kts | 258° |
| 2026-04-26 03:35 | 35.68356 | 74.70956 | 28513 ft | 424 kts | 246° |
| 2026-04-26 03:35 | 35.66910 | 74.67784 | 28892 ft | 427 kts | 246° |
| 2026-04-26 03:36 | 35.65454 | 74.64602 | 29254 ft | 428 kts | 246° |
| 2026-04-26 03:36 | 35.63975 | 74.61420 | 29585 ft | 431 kts | 244° |
| 2026-04-26 03:36 | 35.62174 | 74.58422 | 29857 ft | 442 kts | 235° |
| 2026-04-26 03:36 | 35.60076 | 74.55632 | 30067 ft | 445 kts | 233° |
| 2026-04-26 03:37 | 35.57993 | 74.52892 | 30313 ft | 446 kts | 233° |
| 2026-04-26 03:37 | 35.55869 | 74.50106 | 30571 ft | 447 kts | 234° |
| 2026-04-26 03:37 | 35.53741 | 74.47321 | 30786 ft | 447 kts | 233° |
| 2026-04-26 03:37 | 35.52334 | 74.45478 | 30916 ft | 448 kts | 234° |
| 2026-04-26 03:38 | 35.49485 | 74.41738 | 31208 ft | 448 kts | 233° |
| 2026-04-26 03:38 | 35.48076 | 74.39886 | 31344 ft | 449 kts | 234° |
| 2026-04-26 03:38 | 35.45224 | 74.36139 | 31577 ft | 450 kts | 234° |
| 2026-04-26 03:38 | 35.43087 | 74.33336 | 31866 ft | 449 kts | 233° |
| 2026-04-26 03:39 | 35.41673 | 74.31489 | 32083 ft | 448 kts | 234° |
| 2026-04-26 03:39 | 35.38852 | 74.27816 | 32521 ft | 446 kts | 234° |
| 2026-04-26 03:39 | 35.37416 | 74.25948 | 32750 ft | 445 kts | 234° |
| 2026-04-26 03:39 | 35.35324 | 74.23226 | 33095 ft | 444 kts | 234° |
| 2026-04-26 03:40 | 35.32503 | 74.19548 | 33540 ft | 442 kts | 234° |
| 2026-04-26 03:40 | 35.30401 | 74.16804 | 33882 ft | 441 kts | 234° |
| 2026-04-26 03:40 | 35.29009 | 74.14990 | 34106 ft | 441 kts | 234° |
| 2026-04-26 03:40 | 35.26914 | 74.12264 | 34411 ft | 439 kts | 234° |
| 2026-04-26 03:41 | 35.24820 | 74.09540 | 34681 ft | 439 kts | 234° |
| 2026-04-26 03:41 | 35.22053 | 74.05951 | 35040 ft | 438 kts | 234° |
| 2026-04-26 03:41 | 35.19968 | 74.03252 | 35266 ft | 436 kts | 234° |
| 2026-04-26 03:41 | 35.18559 | 74.01420 | 35394 ft | 436 kts | 235° |
| 2026-04-26 03:42 | 35.16525 | 73.98743 | 35590 ft | 435 kts | 235° |
| 2026-04-26 03:42 | 35.14480 | 73.96022 | 35854 ft | 433 kts | 235° |
| 2026-04-26 03:42 | 35.12457 | 73.93319 | 36083 ft | 432 kts | 235° |
| 2026-04-26 03:42 | 35.10429 | 73.90609 | 36277 ft | 432 kts | 235° |
| 2026-04-26 03:43 | 35.06389 | 73.85238 | 36336 ft | 428 kts | 235° |
| 2026-04-26 03:43 | 35.02350 | 73.79903 | 36346 ft | 428 kts | 235° |
| 2026-04-26 03:44 | 34.98335 | 73.74610 | 36319 ft | 427 kts | 235° |
| 2026-04-26 03:44 | 34.94302 | 73.69281 | 36336 ft | 427 kts | 234° |
| 2026-04-26 03:45 | 34.90281 | 73.63999 | 36225 ft | 423 kts | 234° |
| 2026-04-26 03:45 | 34.86298 | 73.58775 | 36241 ft | 420 kts | 234° |
| 2026-04-26 03:46 | 34.82346 | 73.53587 | 36266 ft | 422 kts | 234° |
| 2026-04-26 03:47 | 34.75015 | 73.47331 | 36183 ft | 449 kts | 206° |
| 2026-04-26 03:47 | 34.68915 | 73.45384 | 36127 ft | 453 kts | 202° |
| 2026-04-26 03:48 | 34.62786 | 73.43521 | 36130 ft | 455 kts | 201° |
| 2026-04-26 03:48 | 34.56683 | 73.41656 | 36078 ft | 455 kts | 201° |
| 2026-04-26 03:49 | 34.50552 | 73.39776 | 36057 ft | 455 kts | 201° |
| 2026-04-26 03:49 | 34.44418 | 73.37898 | 36065 ft | 454 kts | 201° |
| 2026-04-26 03:50 | 34.38285 | 73.36032 | 36014 ft | 454 kts | 201° |
| 2026-04-26 03:50 | 34.32200 | 73.34178 | 35995 ft | 454 kts | 201° |
| 2026-04-26 03:51 | 34.26073 | 73.32311 | 35988 ft | 453 kts | 201° |
| 2026-04-26 03:51 | 34.19959 | 73.30459 | 35983 ft | 453 kts | 201° |
| 2026-04-26 03:52 | 34.13840 | 73.28607 | 35990 ft | 452 kts | 201° |
| 2026-04-26 03:52 | 34.07745 | 73.26763 | 35979 ft | 452 kts | 201° |
| 2026-04-26 03:53 | 34.01690 | 73.24934 | 35987 ft | 451 kts | 201° |
| 2026-04-26 03:53 | 33.95610 | 73.23105 | 35984 ft | 451 kts | 201° |
| 2026-04-26 03:54 | 33.89535 | 73.21274 | 35959 ft | 450 kts | 201° |
| 2026-04-26 03:54 | 33.83465 | 73.19443 | 35956 ft | 449 kts | 201° |
| 2026-04-26 03:55 | 33.77440 | 73.17636 | 35945 ft | 449 kts | 200° |
| 2026-04-26 03:55 | 33.71374 | 73.15823 | 35925 ft | 449 kts | 200° |
| 2026-04-26 03:56 | 33.65323 | 73.14013 | 35927 ft | 448 kts | 200° |
| 2026-04-26 03:56 | 33.59576 | 73.11441 | 35917 ft | 434 kts | 217° |
| 2026-04-26 03:57 | 33.54744 | 73.07338 | 35883 ft | 427 kts | 223° |
| 2026-04-26 03:57 | 33.49984 | 73.03042 | 35887 ft | 428 kts | 223° |
| 2026-04-26 03:58 | 33.45218 | 72.98763 | 35890 ft | 428 kts | 223° |
| 2026-04-26 03:58 | 33.40444 | 72.94488 | 35881 ft | 428 kts | 222° |
| 2026-04-26 03:59 | 33.35707 | 72.90249 | 35893 ft | 428 kts | 223° |
| 2026-04-26 03:59 | 33.30942 | 72.85994 | 35897 ft | 427 kts | 222° |
| 2026-04-26 04:00 | 33.26175 | 72.81750 | 35879 ft | 427 kts | 223° |
| 2026-04-26 04:00 | 33.21419 | 72.77503 | 35886 ft | 427 kts | 223° |
| 2026-04-26 04:01 | 33.16696 | 72.73282 | 35890 ft | 427 kts | 222° |
| 2026-04-26 04:01 | 33.11935 | 72.69044 | 35891 ft | 427 kts | 222° |
| 2026-04-26 04:02 | 33.07164 | 72.64818 | 35896 ft | 427 kts | 222° |
| 2026-04-26 04:02 | 33.02388 | 72.60603 | 35896 ft | 427 kts | 222° |
| 2026-04-26 04:03 | 32.97653 | 72.56415 | 35892 ft | 426 kts | 222° |
| 2026-04-26 04:03 | 32.92895 | 72.52199 | 35884 ft | 427 kts | 222° |
| 2026-04-26 04:04 | 32.88126 | 72.47986 | 35887 ft | 427 kts | 222° |
| 2026-04-26 04:04 | 32.83352 | 72.43783 | 35885 ft | 427 kts | 222° |
| 2026-04-26 04:05 | 32.78606 | 72.39613 | 35888 ft | 427 kts | 222° |
| 2026-04-26 04:05 | 32.73823 | 72.35415 | 35893 ft | 427 kts | 222° |
| 2026-04-26 04:06 | 32.69041 | 72.31219 | 35879 ft | 427 kts | 222° |
| 2026-04-26 04:06 | 32.64257 | 72.27032 | 35881 ft | 427 kts | 222° |
| 2026-04-26 04:07 | 32.59474 | 72.22848 | 35869 ft | 427 kts | 221° |
| 2026-04-26 04:07 | 32.54729 | 72.18707 | 35875 ft | 426 kts | 221° |
| 2026-04-26 04:08 | 32.49959 | 72.14543 | 35876 ft | 426 kts | 221° |
| 2026-04-26 04:08 | 32.45006 | 72.10669 | 35874 ft | 432 kts | 212° |
| 2026-04-26 04:09 | 32.39633 | 72.07499 | 35873 ft | 432 kts | 212° |
| 2026-04-26 04:09 | 32.34299 | 72.04345 | 35846 ft | 432 kts | 212° |
| 2026-04-26 04:10 | 32.28932 | 72.01158 | 35844 ft | 432 kts | 212° |
| 2026-04-26 04:10 | 32.23556 | 71.97985 | 35834 ft | 432 kts | 212° |
| 2026-04-26 04:11 | 32.18217 | 71.94839 | 35839 ft | 432 kts | 212° |
| 2026-04-26 04:11 | 32.12845 | 71.91671 | 35832 ft | 432 kts | 212° |
| 2026-04-26 04:12 | 32.07480 | 71.88515 | 35825 ft | 431 kts | 211° |
| 2026-04-26 04:12 | 32.02116 | 71.85369 | 35830 ft | 430 kts | 211° |
| 2026-04-26 04:13 | 31.96790 | 71.82249 | 35836 ft | 430 kts | 211° |
| 2026-04-26 04:13 | 31.91435 | 71.79092 | 35839 ft | 430 kts | 211° |
| 2026-04-26 04:14 | 31.86078 | 71.75953 | 35841 ft | 430 kts | 211° |
| 2026-04-26 04:14 | 31.80711 | 71.72830 | 35827 ft | 430 kts | 211° |
| 2026-04-26 04:15 | 31.75343 | 71.69697 | 35831 ft | 431 kts | 211° |
| 2026-04-26 04:15 | 31.70005 | 71.66582 | 35832 ft | 432 kts | 211° |
| 2026-04-26 04:16 | 31.64623 | 71.63454 | 35835 ft | 432 kts | 211° |
| 2026-04-26 04:16 | 31.59236 | 71.60322 | 35839 ft | 432 kts | 211° |
| 2026-04-26 04:17 | 31.53851 | 71.57193 | 35835 ft | 432 kts | 211° |
| 2026-04-26 04:17 | 31.48507 | 71.54087 | 35824 ft | 432 kts | 210° |
| 2026-04-26 04:18 | 31.43118 | 71.50972 | 35829 ft | 432 kts | 210° |
| 2026-04-26 04:18 | 31.37731 | 71.47866 | 35829 ft | 432 kts | 210° |
| 2026-04-26 04:19 | 31.32345 | 71.44755 | 35840 ft | 432 kts | 210° |
| 2026-04-26 04:19 | 31.26994 | 71.41661 | 35839 ft | 432 kts | 210° |
| 2026-04-26 04:20 | 31.21598 | 71.38559 | 35826 ft | 433 kts | 210° |
| 2026-04-26 04:20 | 31.16191 | 71.35454 | 35825 ft | 433 kts | 210° |
| 2026-04-26 04:21 | 31.10783 | 71.32344 | 35821 ft | 434 kts | 211° |
| 2026-04-26 04:21 | 31.05370 | 71.29229 | 35817 ft | 434 kts | 210° |
| 2026-04-26 04:22 | 30.99981 | 71.26142 | 35817 ft | 435 kts | 210° |
| 2026-04-26 04:22 | 30.94549 | 71.23040 | 35807 ft | 435 kts | 210° |
| 2026-04-26 04:23 | 30.89113 | 71.19928 | 35815 ft | 436 kts | 210° |
| 2026-04-26 04:23 | 30.83672 | 71.16818 | 35817 ft | 436 kts | 210° |
| 2026-04-26 04:24 | 30.78267 | 71.13736 | 35824 ft | 435 kts | 210° |
| 2026-04-26 04:24 | 30.72826 | 71.10635 | 35822 ft | 436 kts | 210° |
| 2026-04-26 04:25 | 30.67381 | 71.07532 | 35826 ft | 436 kts | 210° |
| 2026-04-26 04:25 | 30.61930 | 71.04439 | 35817 ft | 436 kts | 210° |
| 2026-04-26 04:26 | 30.56518 | 71.01373 | 35833 ft | 436 kts | 210° |
| 2026-04-26 04:26 | 30.51071 | 70.98286 | 35833 ft | 435 kts | 210° |
| 2026-04-26 04:27 | 30.45632 | 70.95198 | 35838 ft | 435 kts | 210° |
| 2026-04-26 04:27 | 30.40195 | 70.92120 | 35830 ft | 435 kts | 210° |
| 2026-04-26 04:28 | 30.34794 | 70.89076 | 35821 ft | 434 kts | 210° |
| 2026-04-26 04:28 | 30.29365 | 70.86016 | 35827 ft | 434 kts | 210° |
| 2026-04-26 04:29 | 30.23945 | 70.82961 | 35823 ft | 433 kts | 210° |
| 2026-04-26 04:29 | 30.18567 | 70.79835 | 35824 ft | 432 kts | 212° |
| 2026-04-26 04:30 | 30.13337 | 70.76537 | 35821 ft | 431 kts | 213° |
| 2026-04-26 04:30 | 30.08088 | 70.73189 | 35826 ft | 431 kts | 212° |
| 2026-04-26 04:31 | 30.02820 | 70.69895 | 35820 ft | 430 kts | 212° |
| 2026-04-26 04:31 | 29.97547 | 70.66630 | 35826 ft | 429 kts | 212° |
| 2026-04-26 04:32 | 29.92287 | 70.63380 | 35824 ft | 429 kts | 212° |
| 2026-04-26 04:32 | 29.87065 | 70.60150 | 35826 ft | 429 kts | 212° |
| 2026-04-26 04:33 | 29.81813 | 70.56902 | 35821 ft | 428 kts | 212° |
| 2026-04-26 04:33 | 29.76565 | 70.53656 | 35822 ft | 428 kts | 212° |
| 2026-04-26 04:34 | 29.71318 | 70.50414 | 35822 ft | 428 kts | 212° |
| 2026-04-26 04:34 | 29.66106 | 70.47202 | 35822 ft | 428 kts | 212° |
| 2026-04-26 04:35 | 29.60859 | 70.43979 | 35820 ft | 428 kts | 212° |
| 2026-04-26 04:35 | 29.55613 | 70.40755 | 35816 ft | 428 kts | 212° |
| 2026-04-26 04:36 | 29.50366 | 70.37536 | 35814 ft | 428 kts | 212° |
| 2026-04-26 04:36 | 29.45149 | 70.34345 | 35786 ft | 428 kts | 212° |
| 2026-04-26 04:37 | 29.39885 | 70.31122 | 35795 ft | 430 kts | 212° |
| 2026-04-26 04:37 | 29.34602 | 70.27889 | 35795 ft | 431 kts | 212° |
| 2026-04-26 04:38 | 29.29316 | 70.24649 | 35800 ft | 431 kts | 212° |
| 2026-04-26 04:38 | 29.24057 | 70.21428 | 35799 ft | 432 kts | 212° |
| 2026-04-26 04:39 | 29.18747 | 70.18198 | 35807 ft | 432 kts | 212° |
| 2026-04-26 04:39 | 29.13433 | 70.14967 | 35802 ft | 432 kts | 212° |
| 2026-04-26 04:40 | 29.08122 | 70.11733 | 35806 ft | 433 kts | 212° |
| 2026-04-26 04:40 | 29.02805 | 70.08508 | 35809 ft | 433 kts | 211° |
| 2026-04-26 04:41 | 28.97525 | 70.05303 | 35817 ft | 433 kts | 212° |
| 2026-04-26 04:41 | 28.92209 | 70.02075 | 35818 ft | 433 kts | 212° |
| 2026-04-26 04:42 | 28.86888 | 69.98851 | 35820 ft | 433 kts | 211° |
| 2026-04-26 04:42 | 28.81568 | 69.95633 | 35808 ft | 433 kts | 211° |
| 2026-04-26 04:43 | 28.76282 | 69.92443 | 35816 ft | 433 kts | 211° |
| 2026-04-26 04:43 | 28.70960 | 69.89235 | 35819 ft | 433 kts | 211° |
| 2026-04-26 04:44 | 28.65640 | 69.86034 | 35819 ft | 433 kts | 211° |
| 2026-04-26 04:44 | 28.60316 | 69.82831 | 35817 ft | 433 kts | 211° |
| 2026-04-26 04:45 | 28.55027 | 69.79649 | 35801 ft | 433 kts | 211° |
| 2026-04-26 04:45 | 28.49720 | 69.76419 | 35809 ft | 432 kts | 212° |
| 2026-04-26 04:46 | 28.44440 | 69.73142 | 35816 ft | 432 kts | 212° |
| 2026-04-26 04:46 | 28.39161 | 69.69869 | 35819 ft | 432 kts | 212° |
| 2026-04-26 04:47 | 28.33908 | 69.66628 | 35818 ft | 432 kts | 212° |
| 2026-04-26 04:47 | 28.28618 | 69.63379 | 35823 ft | 433 kts | 212° |
| 2026-04-26 04:48 | 28.20680 | 69.58505 | 35819 ft | 432 kts | 212° |
| 2026-04-26 04:48 | 28.15391 | 69.55251 | 35822 ft | 432 kts | 212° |
| 2026-04-26 04:49 | 28.10137 | 69.52028 | 35807 ft | 433 kts | 211° |
| 2026-04-26 04:49 | 28.04836 | 69.48786 | 35806 ft | 433 kts | 211° |
| 2026-04-26 04:50 | 27.99536 | 69.45546 | 35813 ft | 433 kts | 211° |
| 2026-04-26 04:50 | 27.94234 | 69.42308 | 35800 ft | 433 kts | 211° |
| 2026-04-26 04:51 | 27.88967 | 69.39091 | 35805 ft | 433 kts | 211° |
| 2026-04-26 04:51 | 27.83660 | 69.35858 | 35807 ft | 433 kts | 211° |
| 2026-04-26 04:52 | 27.78352 | 69.32628 | 35811 ft | 433 kts | 211° |
| 2026-04-26 04:52 | 27.73045 | 69.29394 | 35811 ft | 434 kts | 211° |
| 2026-04-26 04:53 | 27.67764 | 69.26188 | 35816 ft | 434 kts | 211° |
| 2026-04-26 04:53 | 27.62441 | 69.22957 | 35808 ft | 434 kts | 211° |
| 2026-04-26 04:54 | 27.57113 | 69.19733 | 35810 ft | 435 kts | 211° |
| 2026-04-26 04:54 | 27.51780 | 69.16508 | 35806 ft | 435 kts | 211° |
| 2026-04-26 04:55 | 27.46445 | 69.13280 | 35805 ft | 435 kts | 211° |
| 2026-04-26 04:55 | 27.41142 | 69.10077 | 35810 ft | 436 kts | 211° |
| 2026-04-26 04:56 | 27.35796 | 69.06849 | 35812 ft | 436 kts | 211° |
| 2026-04-26 04:56 | 27.30450 | 69.03620 | 35805 ft | 436 kts | 211° |
| 2026-04-26 04:57 | 27.25103 | 69.00389 | 35807 ft | 436 kts | 211° |
| 2026-04-26 04:57 | 27.19790 | 68.97177 | 35810 ft | 437 kts | 211° |
| 2026-04-26 04:58 | 27.14435 | 68.93952 | 35814 ft | 437 kts | 211° |
| 2026-04-26 04:58 | 27.09080 | 68.90736 | 35812 ft | 437 kts | 211° |
| 2026-04-26 04:59 | 27.03725 | 68.87514 | 35810 ft | 437 kts | 211° |
| 2026-04-26 04:59 | 26.98369 | 68.84291 | 35804 ft | 437 kts | 210° |
| 2026-04-26 05:00 | 26.93044 | 68.81101 | 35805 ft | 437 kts | 210° |
| 2026-04-26 05:00 | 26.87673 | 68.77886 | 35803 ft | 438 kts | 210° |
| 2026-04-26 05:01 | 26.82299 | 68.74673 | 35809 ft | 438 kts | 210° |
| 2026-04-26 05:01 | 26.76921 | 68.71462 | 35811 ft | 438 kts | 210° |
| 2026-04-26 05:02 | 26.71579 | 68.68269 | 35815 ft | 438 kts | 210° |
| 2026-04-26 05:02 | 26.66198 | 68.65056 | 35817 ft | 438 kts | 210° |
| 2026-04-26 05:03 | 26.60813 | 68.61843 | 35816 ft | 438 kts | 210° |
| 2026-04-26 05:03 | 26.55435 | 68.58629 | 35816 ft | 438 kts | 210° |
| 2026-04-26 05:04 | 26.50097 | 68.55440 | 35817 ft | 438 kts | 210° |
| 2026-04-26 05:04 | 26.44717 | 68.52240 | 35811 ft | 438 kts | 210° |
| 2026-04-26 05:05 | 26.42025 | 68.50640 | 35681 ft | 439 kts | 210° |
| 2026-04-26 05:05 | 26.39331 | 68.49040 | 35430 ft | 439 kts | 210° |
| 2026-04-26 05:05 | 26.36638 | 68.47437 | 35185 ft | 439 kts | 210° |
| 2026-04-26 05:05 | 26.33933 | 68.45827 | 34441 ft | 443 kts | 210° |
| 2026-04-26 05:06 | 26.31201 | 68.44203 | 33786 ft | 443 kts | 210° |
| 2026-04-26 05:06 | 26.28531 | 68.42617 | 33223 ft | 439 kts | 210° |
| 2026-04-26 05:06 | 26.25850 | 68.41027 | 32670 ft | 435 kts | 210° |
| 2026-04-26 05:06 | 26.23185 | 68.39447 | 32114 ft | 432 kts | 210° |
| 2026-04-26 05:07 | 26.20617 | 68.37746 | 31556 ft | 427 kts | 216° |
| 2026-04-26 05:07 | 26.18178 | 68.35869 | 30996 ft | 425 kts | 216° |
| 2026-04-26 05:07 | 26.15752 | 68.34007 | 30464 ft | 423 kts | 216° |
| 2026-04-26 05:07 | 26.13335 | 68.32158 | 29921 ft | 421 kts | 216° |
| 2026-04-26 05:08 | 26.10932 | 68.30320 | 29337 ft | 418 kts | 216° |
| 2026-04-26 05:08 | 26.08551 | 68.28497 | 28817 ft | 414 kts | 216° |
| 2026-04-26 05:08 | 26.06190 | 68.26690 | 28301 ft | 410 kts | 216° |
| 2026-04-26 05:08 | 26.03885 | 68.24927 | 27802 ft | 406 kts | 216° |
| 2026-04-26 05:09 | 26.01565 | 68.23159 | 27312 ft | 403 kts | 216° |
| 2026-04-26 05:09 | 25.99262 | 68.21404 | 26833 ft | 399 kts | 216° |
| 2026-04-26 05:09 | 25.96981 | 68.19665 | 26370 ft | 396 kts | 216° |
| 2026-04-26 05:09 | 25.94712 | 68.17936 | 25898 ft | 394 kts | 216° |
| 2026-04-26 05:10 | 25.92460 | 68.16224 | 25434 ft | 392 kts | 216° |
| 2026-04-26 05:10 | 25.90217 | 68.14518 | 24969 ft | 390 kts | 216° |
| 2026-04-26 05:10 | 25.87988 | 68.12821 | 24490 ft | 388 kts | 216° |
| 2026-04-26 05:10 | 25.85796 | 68.11152 | 24030 ft | 386 kts | 216° |
| 2026-04-26 05:11 | 25.83584 | 68.09463 | 23531 ft | 386 kts | 216° |
| 2026-04-26 05:11 | 25.81374 | 68.07779 | 22988 ft | 385 kts | 216° |
| 2026-04-26 05:11 | 25.79175 | 68.06106 | 22489 ft | 382 kts | 216° |
| 2026-04-26 05:11 | 25.76988 | 68.04445 | 21999 ft | 380 kts | 216° |
| 2026-04-26 05:12 | 25.74812 | 68.02796 | 21508 ft | 378 kts | 216° |
| 2026-04-26 05:12 | 25.72648 | 68.01154 | 21020 ft | 376 kts | 216° |
| 2026-04-26 05:12 | 25.70523 | 67.99537 | 20538 ft | 375 kts | 216° |
| 2026-04-26 05:12 | 25.68379 | 67.97905 | 20046 ft | 374 kts | 216° |
| 2026-04-26 05:13 | 25.66235 | 67.96275 | 19565 ft | 373 kts | 215° |
| 2026-04-26 05:13 | 25.64096 | 67.94654 | 19080 ft | 372 kts | 215° |
| 2026-04-26 05:13 | 25.61955 | 67.93038 | 18608 ft | 372 kts | 215° |
| 2026-04-26 05:13 | 25.59816 | 67.91425 | 18122 ft | 372 kts | 215° |
| 2026-04-26 05:14 | 25.57681 | 67.89811 | 17603 ft | 371 kts | 215° |
| 2026-04-26 05:14 | 25.55582 | 67.88224 | 17133 ft | 369 kts | 215° |
| 2026-04-26 05:14 | 25.53465 | 67.86622 | 16665 ft | 368 kts | 215° |
| 2026-04-26 05:14 | 25.51359 | 67.85026 | 16202 ft | 366 kts | 215° |
| 2026-04-26 05:15 | 25.49261 | 67.83437 | 15743 ft | 365 kts | 214° |
| 2026-04-26 05:15 | 25.47171 | 67.81855 | 15286 ft | 364 kts | 214° |
| 2026-04-26 05:15 | 25.45085 | 67.80279 | 14842 ft | 362 kts | 214° |
| 2026-04-26 05:15 | 25.43003 | 67.78709 | 14385 ft | 362 kts | 214° |
| 2026-04-26 05:16 | 25.40925 | 67.77143 | 13929 ft | 361 kts | 213° |
| 2026-04-26 05:16 | 25.38853 | 67.75585 | 13541 ft | 358 kts | 213° |
| 2026-04-26 05:16 | 25.36822 | 67.74057 | 13057 ft | 356 kts | 214° |
| 2026-04-26 05:16 | 25.34787 | 67.72525 | 12584 ft | 354 kts | 214° |
| 2026-04-26 05:17 | 25.32764 | 67.71001 | 12103 ft | 352 kts | 214° |
| 2026-04-26 05:17 | 25.30759 | 67.69492 | 11691 ft | 347 kts | 214° |
| 2026-04-26 05:17 | 25.28766 | 67.67994 | 11295 ft | 343 kts | 214° |
| 2026-04-26 05:17 | 25.26813 | 67.66525 | 10735 ft | 336 kts | 214° |
| 2026-04-26 05:18 | 25.24910 | 67.65093 | 10226 ft | 324 kts | 214° |
| 2026-04-26 05:18 | 25.23091 | 67.63725 | 9883 ft | 308 kts | 214° |
| 2026-04-26 05:18 | 25.21376 | 67.62437 | 9420 ft | 300 kts | 214° |
| 2026-04-26 05:18 | 25.19671 | 67.61153 | 9263 ft | 294 kts | 215° |
| 2026-04-26 05:19 | 25.17979 | 67.59878 | 8909 ft | 294 kts | 215° |
| 2026-04-26 05:19 | 25.16288 | 67.58609 | 8474 ft | 294 kts | 215° |
| 2026-04-26 05:19 | 25.14604 | 67.57350 | 8111 ft | 291 kts | 215° |
| 2026-04-26 05:19 | 25.12927 | 67.56094 | 7652 ft | 292 kts | 215° |
| 2026-04-26 05:20 | 25.11259 | 67.54845 | 7294 ft | 289 kts | 216° |
| 2026-04-26 05:20 | 25.09604 | 67.53603 | 6920 ft | 287 kts | 215° |
| 2026-04-26 05:20 | 25.07984 | 67.52386 | 6540 ft | 284 kts | 216° |
| 2026-04-26 05:20 | 25.06360 | 67.51169 | 6122 ft | 279 kts | 216° |
| 2026-04-26 05:21 | 25.04763 | 67.49974 | 5475 ft | 276 kts | 216° |
| 2026-04-26 05:21 | 25.03181 | 67.48792 | 5002 ft | 275 kts | 217° |
| 2026-04-26 05:21 | 25.01598 | 67.47611 | 4609 ft | 273 kts | 217° |
| 2026-04-26 05:21 | 25.00036 | 67.46447 | 4209 ft | 271 kts | 217° |
| 2026-04-26 05:22 | 24.98558 | 67.45171 | 3735 ft | 268 kts | 230° |
| 2026-04-26 05:22 | 24.97525 | 67.43500 | 3324 ft | 263 kts | 248° |
| 2026-04-26 05:22 | 24.96980 | 67.41619 | 3118 ft | 250 kts | 256° |
| 2026-04-26 05:22 | 24.96535 | 67.39856 | 3063 ft | 234 kts | 256° |
| 2026-04-26 05:23 | 24.96112 | 67.38184 | 3015 ft | 219 kts | 256° |
| 2026-04-26 05:23 | 24.95715 | 67.36613 | 2889 ft | 208 kts | 257° |
| 2026-04-26 05:23 | 24.95330 | 67.35085 | 2612 ft | 206 kts | 257° |
| 2026-04-26 05:23 | 24.94954 | 67.33594 | 2336 ft | 197 kts | 256° |
| 2026-04-26 05:24 | 24.94600 | 67.32194 | 2114 ft | 182 kts | 256° |
| 2026-04-26 05:24 | 24.94282 | 67.30940 | 2020 ft | 158 kts | 257° |
| 2026-04-26 05:24 | 24.94005 | 67.29845 | 2014 ft | 143 kts | 257° |
| 2026-04-26 05:24 | 24.93745 | 67.28814 | 1981 ft | 141 kts | 257° |
| 2026-04-26 05:25 | 24.93485 | 67.27784 | 1869 ft | 138 kts | 258° |
| 2026-04-26 05:25 | 24.93229 | 67.26772 | 1725 ft | 137 kts | 258° |
| 2026-04-26 05:25 | 24.92976 | 67.25769 | 1567 ft | 136 kts | 259° |
| 2026-04-26 05:25 | 24.92724 | 67.24774 | 1400 ft | 135 kts | 257° |
| 2026-04-26 05:26 | 24.92471 | 67.23774 | 1230 ft | 135 kts | 257° |
| 2026-04-26 05:26 | 24.92218 | 67.22775 | 1075 ft | 134 kts | 257° |
| 2026-04-26 05:26 | 24.91966 | 67.21782 | 908 ft | 134 kts | 255° |
| 2026-04-26 05:26 | 24.91717 | 67.20797 | 735 ft | 134 kts | 256° |
| 2026-04-26 05:27 | 24.91469 | 67.19811 | 581 ft | 133 kts | 255° |
| 2026-04-26 05:27 | 24.91216 | 67.18816 | 359 ft | 133 kts | 255° |
| 2026-04-26 05:27 | 24.90960 | 67.17826 | 197 ft | 135 kts | 255° |
| 2026-04-26 05:27 | 24.90717 | 67.16865 | 109 ft | 120 kts | 255° |
| 2026-04-26 05:28 | 24.90540 | 67.16156 | 104 ft | 71 kts | 255° |
| 2026-04-26 05:28 | 24.90447 | 67.15789 | 104 ft | 38 kts | 255° |
| 2026-04-26 05:28 | 24.90380 | 67.15522 | 104 ft | 35 kts | 255° |
| 2026-04-26 05:28 | 24.90316 | 67.15273 | 103 ft | 34 kts | 254° |
| 2026-04-26 05:29 | 24.90251 | 67.15050 | 104 ft | 25 kts | 236° |
| 2026-04-26 05:29 | 24.90144 | 67.14920 | 103 ft | 20 kts | 225° |
| 2026-04-26 05:29 | 24.90126 | 67.14898 | 102 ft | 0 kts | 226° |
| 2026-04-26 05:29 | 24.90125 | 67.14898 | 103 ft | 0 kts | 226° |
| 2026-04-26 05:30 | 24.90121 | 67.14893 | 103 ft | 1 kts | 226° |
| 2026-04-26 05:30 | 24.90110 | 67.14880 | 103 ft | 4 kts | 227° |
| 2026-04-26 05:30 | 24.90080 | 67.14864 | 103 ft | 6 kts | 186° |
| 2026-04-26 05:30 | 24.90036 | 67.14883 | 102 ft | 8 kts | 139° |
| 2026-04-26 05:31 | 24.90032 | 67.14941 | 102 ft | 8 kts | 75° |
| 2026-04-26 05:31 | 24.90047 | 67.15002 | 101 ft | 8 kts | 75° |
| 2026-04-26 05:31 | 24.90062 | 67.15058 | 101 ft | 7 kts | 73° |
| 2026-04-26 05:31 | 24.90076 | 67.15108 | 101 ft | 6 kts | 73° |
| 2026-04-26 05:32 | 24.90087 | 67.15151 | 101 ft | 5 kts | 74° |
| 2026-04-26 05:32 | 24.90097 | 67.15194 | 101 ft | 6 kts | 76° |
| 2026-04-26 05:32 | 24.90109 | 67.15244 | 101 ft | 7 kts | 75° |
| 2026-04-26 05:32 | 24.90122 | 67.15297 | 101 ft | 7 kts | 73° |
| 2026-04-26 05:33 | 24.90135 | 67.15347 | 101 ft | 7 kts | 74° |
| 2026-04-26 05:33 | 24.90151 | 67.15409 | 101 ft | 10 kts | 74° |
| 2026-04-26 05:33 | 24.90170 | 67.15485 | 100 ft | 10 kts | 75° |
| 2026-04-26 05:33 | 24.90188 | 67.15556 | 101 ft | 9 kts | 74° |
| 2026-04-26 05:34 | 24.90204 | 67.15618 | 102 ft | 8 kts | 74° |
| 2026-04-26 05:34 | 24.90219 | 67.15678 | 102 ft | 8 kts | 75° |
| 2026-04-26 05:34 | 24.90233 | 67.15736 | 102 ft | 8 kts | 74° |
| 2026-04-26 05:34 | 24.90250 | 67.15805 | 102 ft | 11 kts | 76° |
| 2026-04-26 05:35 | 24.90275 | 67.15903 | 102 ft | 15 kts | 74° |
| 2026-04-26 05:35 | 24.90306 | 67.16024 | 102 ft | 17 kts | 74° |
| 2026-04-26 05:35 | 24.90338 | 67.16155 | 102 ft | 19 kts | 75° |
| 2026-04-26 05:35 | 24.90373 | 67.16293 | 101 ft | 16 kts | 73° |
| 2026-04-26 05:36 | 24.90318 | 67.16367 | 102 ft | 16 kts | 165° |
| 2026-04-26 05:36 | 24.90202 | 67.16401 | 101 ft | 19 kts | 165° |
| 2026-04-26 05:36 | 24.90105 | 67.16433 | 101 ft | 13 kts | 160° |
| 2026-04-26 05:36 | 24.90054 | 67.16492 | 101 ft | 6 kts | 78° |
| 2026-04-26 05:37 | 24.90083 | 67.16521 | 101 ft | 7 kts | 45° |
| 2026-04-26 05:37 | 24.90104 | 67.16545 | 101 ft | 1 kts | 45° |
| 2026-04-26 05:37 | 24.90107 | 67.16548 | 101 ft | 0 kts | 45° |